sensor_id;sensor_type;location;lat;lon;timestamp;temperature;humidity
12386;DHT22;6257;57.634;18.310;2022-07-17T00:02:12;16.00;99.90
12386;DHT22;6257;57.634;18.310;2022-07-17T00:04:39;16.00;99.90
12386;DHT22;6257;57.634;18.310;2022-07-17T00:07:08;15.90;99.90
12386;DHT22;6257;57.634;18.310;2022-07-17T00:09:35;15.90;99.90
12386;DHT22;6257;57.634;18.310;2022-07-17T00:12:03;15.90;99.90
12386;DHT22;6257;57.634;18.310;2022-07-17T00:14:30;15.90;99.90
12386;DHT22;6257;57.634;18.310;2022-07-17T00:16:57;15.90;99.90
12386;DHT22;6257;57.634;18.310;2022-07-17T00:19:24;15.90;99.90
12386;DHT22;6257;57.634;18.310;2022-07-17T00:21:51;15.90;99.90
12386;DHT22;6257;57.634;18.310;2022-07-17T00:24:20;15.90;99.90
12386;DHT22;6257;57.634;18.310;2022-07-17T00:26:47;15.90;99.90
12386;DHT22;6257;57.634;18.310;2022-07-17T00:29:14;15.90;99.90
12386;DHT22;6257;57.634;18.310;2022-07-17T00:31:42;15.90;99.90
12386;DHT22;6257;57.634;18.310;2022-07-17T00:34:10;15.90;99.90
12386;DHT22;6257;57.634;18.310;2022-07-17T00:36:37;16.00;99.90
12386;DHT22;6257;57.634;18.310;2022-07-17T00:39:04;15.90;99.90
12386;DHT22;6257;57.634;18.310;2022-07-17T00:41:33;15.90;99.90
12386;DHT22;6257;57.634;18.310;2022-07-17T00:44:04;15.90;99.90
12386;DHT22;6257;57.634;18.310;2022-07-17T00:46:31;15.90;99.90
12386;DHT22;6257;57.634;18.310;2022-07-17T00:48:58;15.90;99.90
12386;DHT22;6257;57.634;18.310;2022-07-17T00:51:26;15.90;99.90
12386;DHT22;6257;57.634;18.310;2022-07-17T00:53:55;15.90;99.90
12386;DHT22;6257;57.634;18.310;2022-07-17T00:56:22;15.90;99.90
12386;DHT22;6257;57.634;18.310;2022-07-17T00:58:52;15.90;99.90
12386;DHT22;6257;57.634;18.310;2022-07-17T01:01:20;15.90;99.90
12386;DHT22;6257;57.634;18.310;2022-07-17T01:03:47;15.90;99.90
12386;DHT22;6257;57.634;18.310;2022-07-17T01:06:14;15.80;99.90
12386;DHT22;6257;57.634;18.310;2022-07-17T01:08:41;15.80;99.90
12386;DHT22;6257;57.634;18.310;2022-07-17T01:11:08;15.80;99.90
12386;DHT22;6257;57.634;18.310;2022-07-17T01:13:35;15.70;99.90
12386;DHT22;6257;57.634;18.310;2022-07-17T01:16:05;15.60;99.90
12386;DHT22;6257;57.634;18.310;2022-07-17T01:18:32;15.60;99.90
12386;DHT22;6257;57.634;18.310;2022-07-17T01:21:04;15.70;99.90
12386;DHT22;6257;57.634;18.310;2022-07-17T01:23:32;15.70;99.90
12386;DHT22;6257;57.634;18.310;2022-07-17T01:25:59;15.70;99.90
12386;DHT22;6257;57.634;18.310;2022-07-17T01:28:26;15.60;99.90
12386;DHT22;6257;57.634;18.310;2022-07-17T01:30:53;15.50;99.90
12386;DHT22;6257;57.634;18.310;2022-07-17T01:33:20;15.50;99.90
12386;DHT22;6257;57.634;18.310;2022-07-17T01:35:47;15.60;99.90
12386;DHT22;6257;57.634;18.310;2022-07-17T01:38:15;15.60;99.90
12386;DHT22;6257;57.634;18.310;2022-07-17T01:40:42;15.60;99.90
12386;DHT22;6257;57.634;18.310;2022-07-17T01:43:10;15.60;99.90
12386;DHT22;6257;57.634;18.310;2022-07-17T01:45:37;15.60;99.90
12386;DHT22;6257;57.634;18.310;2022-07-17T01:48:04;15.60;99.90
12386;DHT22;6257;57.634;18.310;2022-07-17T01:50:32;15.60;99.90
12386;DHT22;6257;57.634;18.310;2022-07-17T01:52:59;15.50;99.90
12386;DHT22;6257;57.634;18.310;2022-07-17T01:55:27;15.50;99.90
12386;DHT22;6257;57.634;18.310;2022-07-17T01:57:54;15.50;99.90
12386;DHT22;6257;57.634;18.310;2022-07-17T02:00:21;15.60;99.90
12386;DHT22;6257;57.634;18.310;2022-07-17T02:02:51;15.60;99.90
12386;DHT22;6257;57.634;18.310;2022-07-17T02:05:18;15.60;99.90
12386;DHT22;6257;57.634;18.310;2022-07-17T02:07:45;15.60;99.90
12386;DHT22;6257;57.634;18.310;2022-07-17T02:10:13;15.50;99.90
12386;DHT22;6257;57.634;18.310;2022-07-17T02:12:42;15.50;99.90
12386;DHT22;6257;57.634;18.310;2022-07-17T02:15:10;15.60;99.90
12386;DHT22;6257;57.634;18.310;2022-07-17T02:17:38;15.60;99.90
12386;DHT22;6257;57.634;18.310;2022-07-17T02:20:06;15.60;99.90
12386;DHT22;6257;57.634;18.310;2022-07-17T02:22:34;15.50;99.90
12386;DHT22;6257;57.634;18.310;2022-07-17T02:25:01;15.50;99.90
12386;DHT22;6257;57.634;18.310;2022-07-17T02:27:28;15.50;99.90
12386;DHT22;6257;57.634;18.310;2022-07-17T02:30:00;15.50;99.90
12386;DHT22;6257;57.634;18.310;2022-07-17T02:32:27;15.60;99.90
12386;DHT22;6257;57.634;18.310;2022-07-17T02:34:54;15.50;99.90
12386;DHT22;6257;57.634;18.310;2022-07-17T02:37:21;15.50;99.90
12386;DHT22;6257;57.634;18.310;2022-07-17T02:39:48;15.40;99.90
12386;DHT22;6257;57.634;18.310;2022-07-17T02:42:23;15.40;99.90
12386;DHT22;6257;57.634;18.310;2022-07-17T02:44:51;15.30;99.90
12386;DHT22;6257;57.634;18.310;2022-07-17T02:47:24;15.30;99.90
12386;DHT22;6257;57.634;18.310;2022-07-17T02:49:52;15.30;99.90
12386;DHT22;6257;57.634;18.310;2022-07-17T02:52:20;15.40;99.90
12386;DHT22;6257;57.634;18.310;2022-07-17T02:54:47;15.40;99.90
12386;DHT22;6257;57.634;18.310;2022-07-17T02:57:14;15.40;99.90
12386;DHT22;6257;57.634;18.310;2022-07-17T02:59:42;15.40;99.90
12386;DHT22;6257;57.634;18.310;2022-07-17T03:02:09;15.40;99.90
12386;DHT22;6257;57.634;18.310;2022-07-17T03:04:37;15.50;99.90
12386;DHT22;6257;57.634;18.310;2022-07-17T03:07:04;15.50;99.90
12386;DHT22;6257;57.634;18.310;2022-07-17T03:09:31;15.50;99.90
12386;DHT22;6257;57.634;18.310;2022-07-17T03:11:59;15.50;99.90
12386;DHT22;6257;57.634;18.310;2022-07-17T03:14:26;15.50;99.90
12386;DHT22;6257;57.634;18.310;2022-07-17T03:16:53;15.50;99.90
12386;DHT22;6257;57.634;18.310;2022-07-17T03:19:20;15.50;99.90
12386;DHT22;6257;57.634;18.310;2022-07-17T03:21:48;15.50;99.90
12386;DHT22;6257;57.634;18.310;2022-07-17T03:24:15;15.50;99.90
12386;DHT22;6257;57.634;18.310;2022-07-17T03:26:42;15.60;99.90
12386;DHT22;6257;57.634;18.310;2022-07-17T03:29:09;15.60;99.90
12386;DHT22;6257;57.634;18.310;2022-07-17T03:31:36;15.60;99.90
12386;DHT22;6257;57.634;18.310;2022-07-17T03:34:03;15.60;99.90
12386;DHT22;6257;57.634;18.310;2022-07-17T03:36:30;15.70;99.90
12386;DHT22;6257;57.634;18.310;2022-07-17T03:38:59;15.70;99.90
12386;DHT22;6257;57.634;18.310;2022-07-17T03:41:26;15.80;99.90
12386;DHT22;6257;57.634;18.310;2022-07-17T03:43:53;15.90;99.90
12386;DHT22;6257;57.634;18.310;2022-07-17T03:46:21;16.00;99.90
12386;DHT22;6257;57.634;18.310;2022-07-17T03:48:49;16.20;99.90
12386;DHT22;6257;57.634;18.310;2022-07-17T03:51:16;16.40;99.90
12386;DHT22;6257;57.634;18.310;2022-07-17T03:53:43;16.60;99.90
12386;DHT22;6257;57.634;18.310;2022-07-17T03:56:13;16.70;99.90
12386;DHT22;6257;57.634;18.310;2022-07-17T03:58:40;16.80;99.90
12386;DHT22;6257;57.634;18.310;2022-07-17T04:01:08;16.90;99.90
12386;DHT22;6257;57.634;18.310;2022-07-17T04:03:35;16.90;99.90
12386;DHT22;6257;57.634;18.310;2022-07-17T04:06:02;16.80;99.90
12386;DHT22;6257;57.634;18.310;2022-07-17T04:08:31;16.60;99.90
12386;DHT22;6257;57.634;18.310;2022-07-17T04:10:58;16.50;99.90
12386;DHT22;6257;57.634;18.310;2022-07-17T04:13:27;16.40;99.90
12386;DHT22;6257;57.634;18.310;2022-07-17T04:15:54;16.30;99.90
12386;DHT22;6257;57.634;18.310;2022-07-17T04:18:24;16.20;99.90
12386;DHT22;6257;57.634;18.310;2022-07-17T04:20:53;16.10;99.90
12386;DHT22;6257;57.634;18.310;2022-07-17T04:23:20;16.00;99.90
12386;DHT22;6257;57.634;18.310;2022-07-17T04:25:47;15.90;99.90
12386;DHT22;6257;57.634;18.310;2022-07-17T04:28:16;15.80;99.90
12386;DHT22;6257;57.634;18.310;2022-07-17T04:30:45;15.70;99.90
12386;DHT22;6257;57.634;18.310;2022-07-17T04:33:13;15.70;99.90
12386;DHT22;6257;57.634;18.310;2022-07-17T04:35:40;15.60;99.90
12386;DHT22;6257;57.634;18.310;2022-07-17T04:38:08;15.70;99.90
12386;DHT22;6257;57.634;18.310;2022-07-17T04:40:37;15.90;99.90
12386;DHT22;6257;57.634;18.310;2022-07-17T04:43:05;16.10;99.90
12386;DHT22;6257;57.634;18.310;2022-07-17T04:45:34;16.20;99.90
12386;DHT22;6257;57.634;18.310;2022-07-17T04:48:03;16.30;99.90
12386;DHT22;6257;57.634;18.310;2022-07-17T04:50:30;16.40;99.90
12386;DHT22;6257;57.634;18.310;2022-07-17T04:52:59;16.40;99.90
12386;DHT22;6257;57.634;18.310;2022-07-17T04:55:27;16.30;99.90
12386;DHT22;6257;57.634;18.310;2022-07-17T04:57:54;16.80;99.90
12386;DHT22;6257;57.634;18.310;2022-07-17T05:00:21;16.10;99.90
12386;DHT22;6257;57.634;18.310;2022-07-17T05:02:48;16.00;99.90
12386;DHT22;6257;57.634;18.310;2022-07-17T05:05:19;16.00;99.90
12386;DHT22;6257;57.634;18.310;2022-07-17T05:07:46;16.00;99.90
12386;DHT22;6257;57.634;18.310;2022-07-17T05:10:14;16.00;99.90
12386;DHT22;6257;57.634;18.310;2022-07-17T05:12:41;16.10;99.90
12386;DHT22;6257;57.634;18.310;2022-07-17T05:15:08;16.20;99.90
12386;DHT22;6257;57.634;18.310;2022-07-17T05:17:35;16.30;99.90
12386;DHT22;6257;57.634;18.310;2022-07-17T05:20:03;16.50;99.90
12386;DHT22;6257;57.634;18.310;2022-07-17T05:22:32;16.60;99.90
12386;DHT22;6257;57.634;18.310;2022-07-17T05:24:59;16.70;99.90
12386;DHT22;6257;57.634;18.310;2022-07-17T05:27:27;16.80;99.90
12386;DHT22;6257;57.634;18.310;2022-07-17T05:29:54;16.80;99.90
12386;DHT22;6257;57.634;18.310;2022-07-17T05:32:21;16.80;99.90
12386;DHT22;6257;57.634;18.310;2022-07-17T05:34:49;16.80;99.90
12386;DHT22;6257;57.634;18.310;2022-07-17T05:37:16;16.90;99.90
12386;DHT22;6257;57.634;18.310;2022-07-17T05:39:44;16.90;99.90
12386;DHT22;6257;57.634;18.310;2022-07-17T05:42:11;16.80;99.90
12386;DHT22;6257;57.634;18.310;2022-07-17T05:44:38;16.80;99.90
12386;DHT22;6257;57.634;18.310;2022-07-17T05:47:05;16.90;99.90
12386;DHT22;6257;57.634;18.310;2022-07-17T05:49:32;16.80;99.90
12386;DHT22;6257;57.634;18.310;2022-07-17T05:51:59;16.90;99.90
12386;DHT22;6257;57.634;18.310;2022-07-17T05:54:26;17.00;99.90
12386;DHT22;6257;57.634;18.310;2022-07-17T05:56:55;17.00;99.90
12386;DHT22;6257;57.634;18.310;2022-07-17T05:59:22;17.00;99.90
12386;DHT22;6257;57.634;18.310;2022-07-17T06:01:49;17.10;99.90
12386;DHT22;6257;57.634;18.310;2022-07-17T06:04:16;17.10;99.90
12386;DHT22;6257;57.634;18.310;2022-07-17T06:06:43;17.10;99.90
12386;DHT22;6257;57.634;18.310;2022-07-17T06:09:10;17.10;99.90
12386;DHT22;6257;57.634;18.310;2022-07-17T06:11:37;17.20;99.90
12386;DHT22;6257;57.634;18.310;2022-07-17T06:14:05;17.20;99.90
12386;DHT22;6257;57.634;18.310;2022-07-17T06:16:32;17.20;99.90
12386;DHT22;6257;57.634;18.310;2022-07-17T06:18:59;17.20;99.90
12386;DHT22;6257;57.634;18.310;2022-07-17T06:21:26;17.20;99.90
12386;DHT22;6257;57.634;18.310;2022-07-17T06:23:54;17.20;99.90
12386;DHT22;6257;57.634;18.310;2022-07-17T06:26:21;17.20;99.90
12386;DHT22;6257;57.634;18.310;2022-07-17T06:28:48;17.30;99.90
12386;DHT22;6257;57.634;18.310;2022-07-17T06:31:16;17.30;99.90
12386;DHT22;6257;57.634;18.310;2022-07-17T06:33:43;17.30;99.90
12386;DHT22;6257;57.634;18.310;2022-07-17T06:36:10;17.30;99.90
12386;DHT22;6257;57.634;18.310;2022-07-17T06:38:37;17.50;99.90
12386;DHT22;6257;57.634;18.310;2022-07-17T06:41:04;17.40;99.90
12386;DHT22;6257;57.634;18.310;2022-07-17T06:43:31;17.50;99.90
12386;DHT22;6257;57.634;18.310;2022-07-17T06:45:58;17.50;99.90
12386;DHT22;6257;57.634;18.310;2022-07-17T06:48:27;17.60;99.90
12386;DHT22;6257;57.634;18.310;2022-07-17T06:50:54;17.60;99.90
12386;DHT22;6257;57.634;18.310;2022-07-17T06:53:21;17.60;99.90
12386;DHT22;6257;57.634;18.310;2022-07-17T06:55:48;17.70;99.90
12386;DHT22;6257;57.634;18.310;2022-07-17T06:58:15;17.80;99.90
12386;DHT22;6257;57.634;18.310;2022-07-17T07:00:42;17.80;99.90
12386;DHT22;6257;57.634;18.310;2022-07-17T07:03:09;17.80;99.90
12386;DHT22;6257;57.634;18.310;2022-07-17T07:05:38;17.80;99.90
12386;DHT22;6257;57.634;18.310;2022-07-17T07:08:06;17.90;99.90
12386;DHT22;6257;57.634;18.310;2022-07-17T07:10:33;18.00;99.90
12386;DHT22;6257;57.634;18.310;2022-07-17T07:13:00;18.00;99.90
12386;DHT22;6257;57.634;18.310;2022-07-17T07:15:27;18.20;99.90
12386;DHT22;6257;57.634;18.310;2022-07-17T07:17:54;18.30;99.90
12386;DHT22;6257;57.634;18.310;2022-07-17T07:20:21;18.30;99.90
12386;DHT22;6257;57.634;18.310;2022-07-17T07:22:50;18.40;99.90
12386;DHT22;6257;57.634;18.310;2022-07-17T07:25:17;18.40;99.90
12386;DHT22;6257;57.634;18.310;2022-07-17T07:27:44;18.40;99.90
12386;DHT22;6257;57.634;18.310;2022-07-17T07:30:11;18.50;99.90
12386;DHT22;6257;57.634;18.310;2022-07-17T07:32:39;18.70;99.90
12386;DHT22;6257;57.634;18.310;2022-07-17T07:35:07;18.80;99.90
12386;DHT22;6257;57.634;18.310;2022-07-17T07:37:35;18.80;99.90
12386;DHT22;6257;57.634;18.310;2022-07-17T07:40:05;19.00;99.90
12386;DHT22;6257;57.634;18.310;2022-07-17T07:42:32;19.30;99.90
12386;DHT22;6257;57.634;18.310;2022-07-17T07:44:59;19.50;99.90
12386;DHT22;6257;57.634;18.310;2022-07-17T07:47:28;19.60;99.90
12386;DHT22;6257;57.634;18.310;2022-07-17T07:49:55;19.50;99.90
12386;DHT22;6257;57.634;18.310;2022-07-17T07:52:22;19.50;99.90
12386;DHT22;6257;57.634;18.310;2022-07-17T07:54:49;19.50;99.90
12386;DHT22;6257;57.634;18.310;2022-07-17T07:57:17;19.50;99.90
12386;DHT22;6257;57.634;18.310;2022-07-17T07:59:44;19.80;99.90
12386;DHT22;6257;57.634;18.310;2022-07-17T08:02:11;20.00;99.90
12386;DHT22;6257;57.634;18.310;2022-07-17T08:04:39;19.90;99.90
12386;DHT22;6257;57.634;18.310;2022-07-17T08:07:06;20.20;99.90
12386;DHT22;6257;57.634;18.310;2022-07-17T08:09:33;20.60;99.90
12386;DHT22;6257;57.634;18.310;2022-07-17T08:12:00;21.00;99.90
12386;DHT22;6257;57.634;18.310;2022-07-17T08:14:29;21.10;99.90
12386;DHT22;6257;57.634;18.310;2022-07-17T08:16:56;21.00;99.90
12386;DHT22;6257;57.634;18.310;2022-07-17T08:19:23;20.90;99.90
12386;DHT22;6257;57.634;18.310;2022-07-17T08:21:50;20.80;99.90
12386;DHT22;6257;57.634;18.310;2022-07-17T08:24:18;20.50;99.90
12386;DHT22;6257;57.634;18.310;2022-07-17T08:26:45;20.40;99.90
12386;DHT22;6257;57.634;18.310;2022-07-17T08:29:12;20.30;99.90
12386;DHT22;6257;57.634;18.310;2022-07-17T08:31:43;20.20;99.90
12386;DHT22;6257;57.634;18.310;2022-07-17T08:34:10;20.10;99.90
12386;DHT22;6257;57.634;18.310;2022-07-17T08:36:37;20.10;99.90
12386;DHT22;6257;57.634;18.310;2022-07-17T08:39:05;20.20;99.90
12386;DHT22;6257;57.634;18.310;2022-07-17T08:41:32;20.30;99.90
12386;DHT22;6257;57.634;18.310;2022-07-17T08:44:03;20.70;99.90
12386;DHT22;6257;57.634;18.310;2022-07-17T08:46:32;20.70;99.90
12386;DHT22;6257;57.634;18.310;2022-07-17T08:49:03;20.60;99.90
12386;DHT22;6257;57.634;18.310;2022-07-17T08:51:31;20.70;99.90
12386;DHT22;6257;57.634;18.310;2022-07-17T08:53:59;20.70;99.90
12386;DHT22;6257;57.634;18.310;2022-07-17T08:56:26;21.00;99.90
12386;DHT22;6257;57.634;18.310;2022-07-17T08:58:54;20.80;99.90
12386;DHT22;6257;57.634;18.310;2022-07-17T09:01:22;20.30;99.90
12386;DHT22;6257;57.634;18.310;2022-07-17T09:03:57;20.00;99.90
12386;DHT22;6257;57.634;18.310;2022-07-17T09:06:27;20.10;99.90
12386;DHT22;6257;57.634;18.310;2022-07-17T09:09:05;20.20;99.90
12386;DHT22;6257;57.634;18.310;2022-07-17T09:11:43;20.20;99.90
12386;DHT22;6257;57.634;18.310;2022-07-17T09:14:11;20.30;99.90
12386;DHT22;6257;57.634;18.310;2022-07-17T09:16:48;20.40;99.90
12386;DHT22;6257;57.634;18.310;2022-07-17T09:19:27;20.10;99.90
12386;DHT22;6257;57.634;18.310;2022-07-17T09:22:08;20.00;99.90
12386;DHT22;6257;57.634;18.310;2022-07-17T09:24:45;19.80;99.90
12386;DHT22;6257;57.634;18.310;2022-07-17T09:27:13;19.60;99.90
12386;DHT22;6257;57.634;18.310;2022-07-17T09:29:50;19.40;99.90
12386;DHT22;6257;57.634;18.310;2022-07-17T09:32:19;19.50;99.90
12386;DHT22;6257;57.634;18.310;2022-07-17T09:34:46;19.70;99.90
12386;DHT22;6257;57.634;18.310;2022-07-17T09:37:15;19.80;99.90
12386;DHT22;6257;57.634;18.310;2022-07-17T09:39:42;19.80;99.90
12386;DHT22;6257;57.634;18.310;2022-07-17T09:42:20;19.70;99.90
12386;DHT22;6257;57.634;18.310;2022-07-17T09:44:55;19.60;99.90
12386;DHT22;6257;57.634;18.310;2022-07-17T09:47:22;19.60;99.90
12386;DHT22;6257;57.634;18.310;2022-07-17T09:49:51;19.40;99.90
12386;DHT22;6257;57.634;18.310;2022-07-17T09:52:22;19.20;99.90
12386;DHT22;6257;57.634;18.310;2022-07-17T09:54:52;19.00;99.90
12386;DHT22;6257;57.634;18.310;2022-07-17T09:57:20;19.10;99.90
12386;DHT22;6257;57.634;18.310;2022-07-17T09:59:48;19.20;99.90
12386;DHT22;6257;57.634;18.310;2022-07-17T10:02:16;19.50;99.90
12386;DHT22;6257;57.634;18.310;2022-07-17T10:04:45;19.20;99.90
12386;DHT22;6257;57.634;18.310;2022-07-17T10:07:12;19.20;99.90
12386;DHT22;6257;57.634;18.310;2022-07-17T10:09:41;19.30;99.90
12386;DHT22;6257;57.634;18.310;2022-07-17T10:12:08;19.20;99.90
12386;DHT22;6257;57.634;18.310;2022-07-17T10:14:36;19.10;99.90
12386;DHT22;6257;57.634;18.310;2022-07-17T10:17:07;19.20;99.90
12386;DHT22;6257;57.634;18.310;2022-07-17T10:19:44;19.10;99.90
12386;DHT22;6257;57.634;18.310;2022-07-17T10:22:11;19.00;99.90
12386;DHT22;6257;57.634;18.310;2022-07-17T10:24:47;19.00;99.90
12386;DHT22;6257;57.634;18.310;2022-07-17T10:27:20;19.10;99.90
12386;DHT22;6257;57.634;18.310;2022-07-17T10:29:57;19.90;99.90
12386;DHT22;6257;57.634;18.310;2022-07-17T10:32:25;19.20;99.90
12386;DHT22;6257;57.634;18.310;2022-07-17T10:34:57;19.20;99.90
12386;DHT22;6257;57.634;18.310;2022-07-17T10:37:26;19.30;99.90
12386;DHT22;6257;57.634;18.310;2022-07-17T10:39:57;19.30;99.90
12386;DHT22;6257;57.634;18.310;2022-07-17T10:42:44;19.20;99.90
12386;DHT22;6257;57.634;18.310;2022-07-17T10:45:14;19.20;99.90
12386;DHT22;6257;57.634;18.310;2022-07-17T10:47:46;19.20;99.90
12386;DHT22;6257;57.634;18.310;2022-07-17T10:50:13;19.20;99.90
12386;DHT22;6257;57.634;18.310;2022-07-17T10:52:41;19.10;99.90
12386;DHT22;6257;57.634;18.310;2022-07-17T10:55:19;19.00;99.90
12386;DHT22;6257;57.634;18.310;2022-07-17T10:57:47;19.00;99.90
12386;DHT22;6257;57.634;18.310;2022-07-17T11:00:15;19.10;99.90
12386;DHT22;6257;57.634;18.310;2022-07-17T11:02:42;19.30;99.90
12386;DHT22;6257;57.634;18.310;2022-07-17T11:05:11;19.40;99.90
12386;DHT22;6257;57.634;18.310;2022-07-17T11:07:49;19.60;99.90
12386;DHT22;6257;57.634;18.310;2022-07-17T11:10:16;19.70;99.90
12386;DHT22;6257;57.634;18.310;2022-07-17T11:12:45;19.80;99.90
12386;DHT22;6257;57.634;18.310;2022-07-17T11:15:12;19.80;99.90
12386;DHT22;6257;57.634;18.310;2022-07-17T11:17:44;19.80;99.90
12386;DHT22;6257;57.634;18.310;2022-07-17T11:20:12;19.90;99.90
12386;DHT22;6257;57.634;18.310;2022-07-17T11:22:39;20.00;99.90
12386;DHT22;6257;57.634;18.310;2022-07-17T11:25:07;19.90;99.90
12386;DHT22;6257;57.634;18.310;2022-07-17T11:27:35;19.80;99.90
12386;DHT22;6257;57.634;18.310;2022-07-17T11:30:11;19.80;99.90
12386;DHT22;6257;57.634;18.310;2022-07-17T11:32:40;19.80;99.90
12386;DHT22;6257;57.634;18.310;2022-07-17T11:35:15;19.50;99.90
12386;DHT22;6257;57.634;18.310;2022-07-17T11:37:42;19.60;99.90
12386;DHT22;6257;57.634;18.310;2022-07-17T11:40:10;19.60;99.90
12386;DHT22;6257;57.634;18.310;2022-07-17T11:42:37;19.50;99.90
12386;DHT22;6257;57.634;18.310;2022-07-17T11:45:07;19.40;99.90
12386;DHT22;6257;57.634;18.310;2022-07-17T11:47:35;18.00;99.90
12386;DHT22;6257;57.634;18.310;2022-07-17T11:50:08;19.10;99.90
12386;DHT22;6257;57.634;18.310;2022-07-17T11:52:44;19.20;99.90
12386;DHT22;6257;57.634;18.310;2022-07-17T11:55:14;19.40;99.90
12386;DHT22;6257;57.634;18.310;2022-07-17T11:57:43;19.40;99.90
12386;DHT22;6257;57.634;18.310;2022-07-17T12:00:14;19.50;99.90
12386;DHT22;6257;57.634;18.310;2022-07-17T12:02:41;19.60;99.90
12386;DHT22;6257;57.634;18.310;2022-07-17T12:05:09;19.70;99.90
12386;DHT22;6257;57.634;18.310;2022-07-17T12:07:41;20.00;99.90
12386;DHT22;6257;57.634;18.310;2022-07-17T12:10:15;20.30;99.90
12386;DHT22;6257;57.634;18.310;2022-07-17T12:12:56;20.60;99.90
12386;DHT22;6257;57.634;18.310;2022-07-17T12:15:36;20.50;99.90
12386;DHT22;6257;57.634;18.310;2022-07-17T12:18:04;20.50;99.90
12386;DHT22;6257;57.634;18.310;2022-07-17T12:20:41;20.50;99.90
12386;DHT22;6257;57.634;18.310;2022-07-17T12:23:25;20.50;99.90
12386;DHT22;6257;57.634;18.310;2022-07-17T12:26:03;20.50;99.90
12386;DHT22;6257;57.634;18.310;2022-07-17T12:28:30;20.50;99.90
12386;DHT22;6257;57.634;18.310;2022-07-17T12:30:59;20.60;99.90
12386;DHT22;6257;57.634;18.310;2022-07-17T12:33:26;20.60;99.90
12386;DHT22;6257;57.634;18.310;2022-07-17T12:35:53;20.80;99.90
12386;DHT22;6257;57.634;18.310;2022-07-17T12:38:21;20.90;99.90
12386;DHT22;6257;57.634;18.310;2022-07-17T12:40:48;20.80;99.90
12386;DHT22;6257;57.634;18.310;2022-07-17T12:43:15;20.90;99.90
12386;DHT22;6257;57.634;18.310;2022-07-17T12:45:42;21.00;99.90
12386;DHT22;6257;57.634;18.310;2022-07-17T12:48:10;21.00;99.90
12386;DHT22;6257;57.634;18.310;2022-07-17T12:50:37;21.00;99.90
12386;DHT22;6257;57.634;18.310;2022-07-17T12:53:05;21.10;99.90
12386;DHT22;6257;57.634;18.310;2022-07-17T12:55:32;21.20;99.90
12386;DHT22;6257;57.634;18.310;2022-07-17T12:57:59;21.30;99.90
12386;DHT22;6257;57.634;18.310;2022-07-17T13:00:26;21.30;99.90
12386;DHT22;6257;57.634;18.310;2022-07-17T13:02:53;21.30;99.90
12386;DHT22;6257;57.634;18.310;2022-07-17T13:05:22;21.30;99.90
12386;DHT22;6257;57.634;18.310;2022-07-17T13:07:49;21.30;99.90
12386;DHT22;6257;57.634;18.310;2022-07-17T13:10:17;21.30;99.90
12386;DHT22;6257;57.634;18.310;2022-07-17T13:12:44;21.30;99.90
12386;DHT22;6257;57.634;18.310;2022-07-17T13:15:11;21.20;99.90
12386;DHT22;6257;57.634;18.310;2022-07-17T13:17:38;21.00;99.90
12386;DHT22;6257;57.634;18.310;2022-07-17T13:20:06;20.80;99.90
12386;DHT22;6257;57.634;18.310;2022-07-17T13:22:35;20.80;99.90
12386;DHT22;6257;57.634;18.310;2022-07-17T13:25:02;20.90;99.90
12386;DHT22;6257;57.634;18.310;2022-07-17T13:27:29;21.10;99.90
12386;DHT22;6257;57.634;18.310;2022-07-17T13:29:56;21.30;99.90
12386;DHT22;6257;57.634;18.310;2022-07-17T13:32:23;21.40;99.90
12386;DHT22;6257;57.634;18.310;2022-07-17T13:34:50;21.50;99.90
12386;DHT22;6257;57.634;18.310;2022-07-17T13:37:17;21.60;99.90
12386;DHT22;6257;57.634;18.310;2022-07-17T13:39:46;21.60;99.90
12386;DHT22;6257;57.634;18.310;2022-07-17T13:42:13;21.60;99.90
12386;DHT22;6257;57.634;18.310;2022-07-17T13:44:40;21.60;99.90
12386;DHT22;6257;57.634;18.310;2022-07-17T13:47:07;21.50;99.90
12386;DHT22;6257;57.634;18.310;2022-07-17T13:49:34;21.30;99.90
12386;DHT22;6257;57.634;18.310;2022-07-17T13:52:01;21.20;99.90
12386;DHT22;6257;57.634;18.310;2022-07-17T13:54:28;21.10;99.90
12386;DHT22;6257;57.634;18.310;2022-07-17T13:56:56;21.60;99.90
12386;DHT22;6257;57.634;18.310;2022-07-17T13:59:25;21.10;99.90
12386;DHT22;6257;57.634;18.310;2022-07-17T14:01:52;20.80;99.90
12386;DHT22;6257;57.634;18.310;2022-07-17T14:04:19;20.70;99.90
12386;DHT22;6257;57.634;18.310;2022-07-17T14:06:46;20.50;99.90
12386;DHT22;6257;57.634;18.310;2022-07-17T14:09:13;20.50;99.90
12386;DHT22;6257;57.634;18.310;2022-07-17T14:11:40;20.50;99.90
12386;DHT22;6257;57.634;18.310;2022-07-17T14:14:09;20.50;99.90
12386;DHT22;6257;57.634;18.310;2022-07-17T14:16:36;20.70;99.90
12386;DHT22;6257;57.634;18.310;2022-07-17T14:19:03;20.80;99.90
12386;DHT22;6257;57.634;18.310;2022-07-17T14:21:32;20.90;99.90
12386;DHT22;6257;57.634;18.310;2022-07-17T14:23:59;20.90;99.90
12386;DHT22;6257;57.634;18.310;2022-07-17T14:26:27;20.90;99.90
12386;DHT22;6257;57.634;18.310;2022-07-17T14:28:54;20.90;99.90
12386;DHT22;6257;57.634;18.310;2022-07-17T14:31:22;20.80;99.90
12386;DHT22;6257;57.634;18.310;2022-07-17T14:33:49;20.80;99.90
12386;DHT22;6257;57.634;18.310;2022-07-17T14:36:17;20.80;99.90
12386;DHT22;6257;57.634;18.310;2022-07-17T14:38:44;20.70;99.90
12386;DHT22;6257;57.634;18.310;2022-07-17T14:41:12;20.60;99.90
12386;DHT22;6257;57.634;18.310;2022-07-17T14:43:39;20.50;99.90
12386;DHT22;6257;57.634;18.310;2022-07-17T14:46:07;20.40;99.90
12386;DHT22;6257;57.634;18.310;2022-07-17T14:48:35;20.40;99.90
12386;DHT22;6257;57.634;18.310;2022-07-17T14:51:03;20.30;99.90
12386;DHT22;6257;57.634;18.310;2022-07-17T14:53:30;20.30;99.90
12386;DHT22;6257;57.634;18.310;2022-07-17T14:55:57;20.20;99.90
12386;DHT22;6257;57.634;18.310;2022-07-17T14:58:24;20.00;99.90
12386;DHT22;6257;57.634;18.310;2022-07-17T15:00:51;20.00;99.90
12386;DHT22;6257;57.634;18.310;2022-07-17T15:03:18;19.90;99.90
12386;DHT22;6257;57.634;18.310;2022-07-17T15:05:46;19.90;99.90
12386;DHT22;6257;57.634;18.310;2022-07-17T15:08:14;20.00;99.90
12386;DHT22;6257;57.634;18.310;2022-07-17T15:10:41;20.00;99.90
12386;DHT22;6257;57.634;18.310;2022-07-17T15:13:08;20.10;99.90
12386;DHT22;6257;57.634;18.310;2022-07-17T15:15:35;20.10;99.90
12386;DHT22;6257;57.634;18.310;2022-07-17T15:18:02;20.30;99.90
12386;DHT22;6257;57.634;18.310;2022-07-17T15:20:29;20.40;99.90
12386;DHT22;6257;57.634;18.310;2022-07-17T15:22:57;20.40;99.90
12386;DHT22;6257;57.634;18.310;2022-07-17T15:25:24;20.40;99.90
12386;DHT22;6257;57.634;18.310;2022-07-17T15:27:51;20.40;99.90
12386;DHT22;6257;57.634;18.310;2022-07-17T15:30:18;20.40;99.90
12386;DHT22;6257;57.634;18.310;2022-07-17T15:32:46;20.30;99.90
12386;DHT22;6257;57.634;18.310;2022-07-17T15:35:13;20.30;99.90
12386;DHT22;6257;57.634;18.310;2022-07-17T15:37:40;20.20;99.90